sensor_id;sensor_type;location;lat;lon;timestamp;P1;durP1;ratioP1;P2;durP2;ratioP2
33475;SDS011;19814;48.224;11.422;2023-10-09T00:00:09;18.08;;;5.68;;
33475;SDS011;19814;48.224;11.422;2023-10-09T00:02:54;16.23;;;5.07;;
33475;SDS011;19814;48.224;11.422;2023-10-09T00:05:19;13.80;;;5.55;;
33475;SDS011;19814;48.224;11.422;2023-10-09T00:07:53;13.27;;;5.63;;
33475;SDS011;19814;48.224;11.422;2023-10-09T00:10:22;13.32;;;4.97;;
33475;SDS011;19814;48.224;11.422;2023-10-09T00:12:50;12.05;;;5.47;;
33475;SDS011;19814;48.224;11.422;2023-10-09T00:15:15;14.00;;;5.05;;
33475;SDS011;19814;48.224;11.422;2023-10-09T00:17:43;11.15;;;4.82;;
33475;SDS011;19814;48.224;11.422;2023-10-09T00:20:12;13.30;;;5.00;;
33475;SDS011;19814;48.224;11.422;2023-10-09T00:22:45;12.48;;;4.95;;
33475;SDS011;19814;48.224;11.422;2023-10-09T00:25:11;11.30;;;4.93;;
33475;SDS011;19814;48.224;11.422;2023-10-09T00:27:40;10.45;;;4.35;;
33475;SDS011;19814;48.224;11.422;2023-10-09T00:30:14;13.60;;;4.68;;
33475;SDS011;19814;48.224;11.422;2023-10-09T00:32:46;15.63;;;4.82;;
33475;SDS011;19814;48.224;11.422;2023-10-09T00:35:26;10.75;;;4.25;;
33475;SDS011;19814;48.224;11.422;2023-10-09T00:38:01;8.45;;;3.80;;
33475;SDS011;19814;48.224;11.422;2023-10-09T00:42:59;10.77;;;4.35;;
33475;SDS011;19814;48.224;11.422;2023-10-09T00:45:31;12.32;;;4.20;;
33475;SDS011;19814;48.224;11.422;2023-10-09T00:47:57;10.43;;;4.25;;
33475;SDS011;19814;48.224;11.422;2023-10-09T00:50:26;11.77;;;4.38;;
33475;SDS011;19814;48.224;11.422;2023-10-09T00:52:52;9.90;;;4.15;;
33475;SDS011;19814;48.224;11.422;2023-10-09T00:55:37;13.45;;;4.70;;
33475;SDS011;19814;48.224;11.422;2023-10-09T00:58:11;10.73;;;4.18;;
33475;SDS011;19814;48.224;11.422;2023-10-09T01:00:39;9.40;;;4.22;;
33475;SDS011;19814;48.224;11.422;2023-10-09T01:03:18;11.45;;;4.60;;
33475;SDS011;19814;48.224;11.422;2023-10-09T01:05:46;13.52;;;4.70;;
33475;SDS011;19814;48.224;11.422;2023-10-09T01:08:32;14.45;;;4.45;;
33475;SDS011;19814;48.224;11.422;2023-10-09T01:11:14;12.90;;;4.20;;
33475;SDS011;19814;48.224;11.422;2023-10-09T01:13:48;13.30;;;3.88;;
33475;SDS011;19814;48.224;11.422;2023-10-09T01:16:21;11.77;;;4.10;;
33475;SDS011;19814;48.224;11.422;2023-10-09T01:21:18;14.63;;;4.25;;
33475;SDS011;19814;48.224;11.422;2023-10-09T01:23:48;14.43;;;4.63;;
33475;SDS011;19814;48.224;11.422;2023-10-09T01:26:36;14.18;;;4.35;;
33475;SDS011;19814;48.224;11.422;2023-10-09T01:29:09;13.18;;;3.85;;
33475;SDS011;19814;48.224;11.422;2023-10-09T01:31:39;13.07;;;3.67;;
33475;SDS011;19814;48.224;11.422;2023-10-09T01:36:51;9.52;;;3.33;;
33475;SDS011;19814;48.224;11.422;2023-10-09T01:39:20;9.65;;;3.90;;
33475;SDS011;19814;48.224;11.422;2023-10-09T01:41:51;13.02;;;3.83;;
33475;SDS011;19814;48.224;11.422;2023-10-09T01:44:23;13.73;;;4.35;;
33475;SDS011;19814;48.224;11.422;2023-10-09T01:46:51;13.32;;;3.53;;
33475;SDS011;19814;48.224;11.422;2023-10-09T01:49:20;12.30;;;3.55;;
33475;SDS011;19814;48.224;11.422;2023-10-09T01:51:54;17.48;;;3.60;;
33475;SDS011;19814;48.224;11.422;2023-10-09T01:54:38;9.27;;;3.78;;
33475;SDS011;19814;48.224;11.422;2023-10-09T01:57:06;12.05;;;3.70;;
33475;SDS011;19814;48.224;11.422;2023-10-09T01:59:47;8.75;;;3.65;;
33475;SDS011;19814;48.224;11.422;2023-10-09T02:02:14;9.57;;;3.63;;
33475;SDS011;19814;48.224;11.422;2023-10-09T02:04:57;13.10;;;4.00;;
33475;SDS011;19814;48.224;11.422;2023-10-09T02:07:50;11.77;;;4.03;;
33475;SDS011;19814;48.224;11.422;2023-10-09T02:10:19;14.27;;;3.72;;
33475;SDS011;19814;48.224;11.422;2023-10-09T02:12:50;12.50;;;3.78;;
33475;SDS011;19814;48.224;11.422;2023-10-09T02:15:22;10.68;;;3.28;;
33475;SDS011;19814;48.224;11.422;2023-10-09T02:18:11;9.48;;;3.58;;
33475;SDS011;19814;48.224;11.422;2023-10-09T02:20:45;9.57;;;3.30;;
33475;SDS011;19814;48.224;11.422;2023-10-09T02:23:13;12.45;;;3.63;;
33475;SDS011;19814;48.224;11.422;2023-10-09T02:25:42;10.63;;;3.72;;
33475;SDS011;19814;48.224;11.422;2023-10-09T02:28:10;12.82;;;3.47;;
33475;SDS011;19814;48.224;11.422;2023-10-09T02:30:45;10.05;;;3.45;;
33475;SDS011;19814;48.224;11.422;2023-10-09T02:33:15;10.27;;;3.65;;
33475;SDS011;19814;48.224;11.422;2023-10-09T02:35:52;13.60;;;4.03;;
33475;SDS011;19814;48.224;11.422;2023-10-09T02:38:19;11.10;;;3.42;;
33475;SDS011;19814;48.224;11.422;2023-10-09T02:40:49;12.10;;;3.95;;
33475;SDS011;19814;48.224;11.422;2023-10-09T02:43:38;11.50;;;3.75;;
33475;SDS011;19814;48.224;11.422;2023-10-09T02:46:11;13.02;;;3.92;;
33475;SDS011;19814;48.224;11.422;2023-10-09T02:48:47;11.63;;;3.92;;
33475;SDS011;19814;48.224;11.422;2023-10-09T02:51:16;11.48;;;3.72;;
33475;SDS011;19814;48.224;11.422;2023-10-09T02:53:55;10.15;;;3.38;;
33475;SDS011;19814;48.224;11.422;2023-10-09T02:59:07;12.43;;;3.63;;
33475;SDS011;19814;48.224;11.422;2023-10-09T03:01:33;11.57;;;3.30;;
33475;SDS011;19814;48.224;11.422;2023-10-09T03:04:03;9.63;;;3.35;;
33475;SDS011;19814;48.224;11.422;2023-10-09T03:06:30;11.52;;;3.63;;
33475;SDS011;19814;48.224;11.422;2023-10-09T03:08:57;13.98;;;4.10;;
33475;SDS011;19814;48.224;11.422;2023-10-09T03:11:23;9.38;;;3.20;;
33475;SDS011;19814;48.224;11.422;2023-10-09T03:13:51;10.30;;;3.05;;
33475;SDS011;19814;48.224;11.422;2023-10-09T03:16:18;10.00;;;3.20;;
33475;SDS011;19814;48.224;11.422;2023-10-09T03:18:47;8.95;;;3.53;;
33475;SDS011;19814;48.224;11.422;2023-10-09T03:23:44;11.38;;;3.22;;
33475;SDS011;19814;48.224;11.422;2023-10-09T03:26:14;12.55;;;3.90;;
33475;SDS011;19814;48.224;11.422;2023-10-09T03:28:49;11.88;;;3.80;;
33475;SDS011;19814;48.224;11.422;2023-10-09T03:31:15;10.80;;;3.72;;
33475;SDS011;19814;48.224;11.422;2023-10-09T03:33:40;14.00;;;3.20;;
33475;SDS011;19814;48.224;11.422;2023-10-09T03:36:06;10.57;;;3.83;;
33475;SDS011;19814;48.224;11.422;2023-10-09T03:38:37;10.25;;;2.80;;
33475;SDS011;19814;48.224;11.422;2023-10-09T03:41:04;13.70;;;3.25;;
33475;SDS011;19814;48.224;11.422;2023-10-09T03:43:33;11.98;;;3.35;;
33475;SDS011;19814;48.224;11.422;2023-10-09T03:46:04;8.00;;;2.95;;
33475;SDS011;19814;48.224;11.422;2023-10-09T03:48:37;12.63;;;3.33;;
33475;SDS011;19814;48.224;11.422;2023-10-09T03:51:03;9.35;;;3.08;;
33475;SDS011;19814;48.224;11.422;2023-10-09T03:53:36;11.00;;;3.42;;
33475;SDS011;19814;48.224;11.422;2023-10-09T03:56:03;9.80;;;3.50;;
33475;SDS011;19814;48.224;11.422;2023-10-09T03:58:36;11.55;;;3.45;;
33475;SDS011;19814;48.224;11.422;2023-10-09T04:01:09;10.88;;;3.75;;
33475;SDS011;19814;48.224;11.422;2023-10-09T04:03:41;8.93;;;3.53;;
33475;SDS011;19814;48.224;11.422;2023-10-09T04:06:08;10.20;;;3.88;;
33475;SDS011;19814;48.224;11.422;2023-10-09T04:08:36;11.77;;;3.85;;
33475;SDS011;19814;48.224;11.422;2023-10-09T04:11:04;10.65;;;3.90;;
33475;SDS011;19814;48.224;11.422;2023-10-09T04:13:40;9.77;;;3.83;;
33475;SDS011;19814;48.224;11.422;2023-10-09T04:16:14;22.13;;;4.35;;
33475;SDS011;19814;48.224;11.422;2023-10-09T04:18:59;11.18;;;4.13;;
33475;SDS011;19814;48.224;11.422;2023-10-09T04:21:30;11.07;;;4.30;;
33475;SDS011;19814;48.224;11.422;2023-10-09T04:24:00;11.65;;;3.65;;
33475;SDS011;19814;48.224;11.422;2023-10-09T04:26:39;14.68;;;4.10;;
33475;SDS011;19814;48.224;11.422;2023-10-09T04:29:12;11.05;;;3.60;;
33475;SDS011;19814;48.224;11.422;2023-10-09T04:31:54;11.80;;;3.38;;
33475;SDS011;19814;48.224;11.422;2023-10-09T04:34:24;13.13;;;3.83;;
33475;SDS011;19814;48.224;11.422;2023-10-09T04:36:59;11.35;;;3.45;;
33475;SDS011;19814;48.224;11.422;2023-10-09T04:39:26;9.35;;;3.03;;
33475;SDS011;19814;48.224;11.422;2023-10-09T04:41:55;12.35;;;3.55;;
33475;SDS011;19814;48.224;11.422;2023-10-09T04:44:41;13.57;;;3.45;;
33475;SDS011;19814;48.224;11.422;2023-10-09T04:47:26;11.90;;;3.47;;
33475;SDS011;19814;48.224;11.422;2023-10-09T04:50:03;13.77;;;3.67;;
33475;SDS011;19814;48.224;11.422;2023-10-09T04:52:36;13.60;;;3.65;;
33475;SDS011;19814;48.224;11.422;2023-10-09T04:55:02;19.73;;;4.15;;
33475;SDS011;19814;48.224;11.422;2023-10-09T05:03:07;15.40;;;4.15;;
33475;SDS011;19814;48.224;11.422;2023-10-09T05:05:36;11.82;;;3.35;;
33475;SDS011;19814;48.224;11.422;2023-10-09T05:08:05;13.80;;;3.28;;
33475;SDS011;19814;48.224;11.422;2023-10-09T05:10:59;12.13;;;3.70;;
33475;SDS011;19814;48.224;11.422;2023-10-09T05:13:29;12.82;;;3.33;;
33475;SDS011;19814;48.224;11.422;2023-10-09T05:16:08;18.08;;;3.90;;
33475;SDS011;19814;48.224;11.422;2023-10-09T05:18:47;11.40;;;3.95;;
33475;SDS011;19814;48.224;11.422;2023-10-09T05:21:37;14.35;;;3.65;;
33475;SDS011;19814;48.224;11.422;2023-10-09T05:24:07;10.18;;;3.92;;
33475;SDS011;19814;48.224;11.422;2023-10-09T05:26:39;16.40;;;3.28;;
33475;SDS011;19814;48.224;11.422;2023-10-09T05:29:12;15.73;;;3.78;;
33475;SDS011;19814;48.224;11.422;2023-10-09T05:32:13;15.15;;;3.55;;
33475;SDS011;19814;48.224;11.422;2023-10-09T05:34:39;22.85;;;4.57;;
33475;SDS011;19814;48.224;11.422;2023-10-09T05:37:27;14.20;;;3.13;;
33475;SDS011;19814;48.224;11.422;2023-10-09T05:39:59;15.35;;;3.35;;
33475;SDS011;19814;48.224;11.422;2023-10-09T05:42:27;12.52;;;3.42;;
33475;SDS011;19814;48.224;11.422;2023-10-09T05:45:06;15.35;;;3.88;;
33475;SDS011;19814;48.224;11.422;2023-10-09T05:47:51;20.95;;;3.78;;
33475;SDS011;19814;48.224;11.422;2023-10-09T05:50:22;13.70;;;3.28;;
33475;SDS011;19814;48.224;11.422;2023-10-09T05:52:51;16.20;;;3.50;;
33475;SDS011;19814;48.224;11.422;2023-10-09T05:55:18;11.13;;;3.53;;
33475;SDS011;19814;48.224;11.422;2023-10-09T05:57:51;17.63;;;3.50;;
33475;SDS011;19814;48.224;11.422;2023-10-09T06:00:35;15.43;;;3.53;;
33475;SDS011;19814;48.224;11.422;2023-10-09T06:03:20;16.45;;;3.30;;
33475;SDS011;19814;48.224;11.422;2023-10-09T06:05:46;11.23;;;3.28;;
33475;SDS011;19814;48.224;11.422;2023-10-09T06:08:18;12.85;;;2.90;;
33475;SDS011;19814;48.224;11.422;2023-10-09T06:10:52;17.15;;;3.00;;
33475;SDS011;19814;48.224;11.422;2023-10-09T06:13:37;16.20;;;4.20;;
33475;SDS011;19814;48.224;11.422;2023-10-09T06:16:02;19.33;;;3.17;;
33475;SDS011;19814;48.224;11.422;2023-10-09T06:18:45;16.13;;;3.15;;
33475;SDS011;19814;48.224;11.422;2023-10-09T06:21:19;14.73;;;3.53;;
33475;SDS011;19814;48.224;11.422;2023-10-09T06:24:06;12.45;;;2.97;;
33475;SDS011;19814;48.224;11.422;2023-10-09T06:26:40;14.88;;;3.28;;
33475;SDS011;19814;48.224;11.422;2023-10-09T06:29:19;12.45;;;3.63;;
33475;SDS011;19814;48.224;11.422;2023-10-09T06:32:06;12.05;;;2.97;;
33475;SDS011;19814;48.224;11.422;2023-10-09T06:34:51;11.88;;;2.78;;
33475;SDS011;19814;48.224;11.422;2023-10-09T06:40:26;11.55;;;2.83;;
33475;SDS011;19814;48.224;11.422;2023-10-09T06:43:01;11.45;;;2.67;;
33475;SDS011;19814;48.224;11.422;2023-10-09T06:45:54;17.85;;;3.22;;
33475;SDS011;19814;48.224;11.422;2023-10-09T06:48:40;11.82;;;3.03;;
33475;SDS011;19814;48.224;11.422;2023-10-09T06:51:09;12.70;;;2.75;;
33475;SDS011;19814;48.224;11.422;2023-10-09T06:53:51;14.23;;;2.88;;
33475;SDS011;19814;48.224;11.422;2023-10-09T06:56:24;14.18;;;3.00;;
33475;SDS011;19814;48.224;11.422;2023-10-09T06:58:54;10.23;;;2.83;;
33475;SDS011;19814;48.224;11.422;2023-10-09T07:01:26;10.23;;;2.33;;
33475;SDS011;19814;48.224;11.422;2023-10-09T07:04:07;8.32;;;2.75;;
33475;SDS011;19814;48.224;11.422;2023-10-09T07:06:56;13.65;;;2.75;;
33475;SDS011;19814;48.224;11.422;2023-10-09T07:09:22;11.60;;;2.70;;
33475;SDS011;19814;48.224;11.422;2023-10-09T07:11:51;13.73;;;2.95;;
33475;SDS011;19814;48.224;11.422;2023-10-09T07:16:56;10.43;;;2.80;;
33475;SDS011;19814;48.224;11.422;2023-10-09T07:19:25;13.15;;;2.50;;
33475;SDS011;19814;48.224;11.422;2023-10-09T07:22:23;12.68;;;2.25;;
33475;SDS011;19814;48.224;11.422;2023-10-09T07:24:54;13.23;;;2.60;;
33475;SDS011;19814;48.224;11.422;2023-10-09T07:27:21;12.18;;;2.22;;
33475;SDS011;19814;48.224;11.422;2023-10-09T07:30:07;12.68;;;2.47;;
33475;SDS011;19814;48.224;11.422;2023-10-09T07:32:58;11.85;;;2.38;;
33475;SDS011;19814;48.224;11.422;2023-10-09T07:35:33;12.35;;;2.65;;
33475;SDS011;19814;48.224;11.422;2023-10-09T07:38:07;16.33;;;2.72;;
33475;SDS011;19814;48.224;11.422;2023-10-09T07:41:00;11.77;;;2.30;;
33475;SDS011;19814;48.224;11.422;2023-10-09T07:43:35;15.95;;;2.17;;
33475;SDS011;19814;48.224;11.422;2023-10-09T07:46:08;10.75;;;2.67;;
33475;SDS011;19814;48.224;11.422;2023-10-09T07:49:01;9.88;;;2.08;;
33475;SDS011;19814;48.224;11.422;2023-10-09T07:51:35;8.13;;;2.22;;
33475;SDS011;19814;48.224;11.422;2023-10-09T07:54:01;12.77;;;2.22;;
33475;SDS011;19814;48.224;11.422;2023-10-09T07:56:35;12.98;;;3.10;;
33475;SDS011;19814;48.224;11.422;2023-10-09T07:59:11;30.92;;;3.20;;
33475;SDS011;19814;48.224;11.422;2023-10-09T08:01:41;12.00;;;2.80;;
33475;SDS011;19814;48.224;11.422;2023-10-09T08:04:24;13.13;;;2.78;;
33475;SDS011;19814;48.224;11.422;2023-10-09T08:07:08;15.70;;;2.45;;
33475;SDS011;19814;48.224;11.422;2023-10-09T08:09:44;12.73;;;2.65;;
33475;SDS011;19814;48.224;11.422;2023-10-09T08:12:35;11.75;;;2.88;;
33475;SDS011;19814;48.224;11.422;2023-10-09T08:15:22;12.90;;;2.70;;
33475;SDS011;19814;48.224;11.422;2023-10-09T08:17:59;12.30;;;2.83;;
33475;SDS011;19814;48.224;11.422;2023-10-09T08:20:28;15.30;;;3.38;;
33475;SDS011;19814;48.224;11.422;2023-10-09T08:23:21;12.75;;;3.17;;
33475;SDS011;19814;48.224;11.422;2023-10-09T08:26:04;13.93;;;3.20;;
33475;SDS011;19814;48.224;11.422;2023-10-09T08:28:42;10.80;;;2.63;;
33475;SDS011;19814;48.224;11.422;2023-10-09T08:31:12;11.60;;;2.60;;
33475;SDS011;19814;48.224;11.422;2023-10-09T08:33:45;14.02;;;2.67;;
33475;SDS011;19814;48.224;11.422;2023-10-09T08:36:21;10.77;;;2.20;;
33475;SDS011;19814;48.224;11.422;2023-10-09T08:38:48;13.00;;;2.40;;
33475;SDS011;19814;48.224;11.422;2023-10-09T08:41:13;6.70;;;2.38;;
33475;SDS011;19814;48.224;11.422;2023-10-09T08:43:51;13.25;;;2.88;;
33475;SDS011;19814;48.224;11.422;2023-10-09T08:46:18;15.68;;;2.30;;
33475;SDS011;19814;48.224;11.422;2023-10-09T08:48:45;14.57;;;2.22;;
33475;SDS011;19814;48.224;11.422;2023-10-09T08:51:12;11.35;;;3.08;;
33475;SDS011;19814;48.224;11.422;2023-10-09T08:53:39;11.35;;;2.47;;
33475;SDS011;19814;48.224;11.422;2023-10-09T08:56:16;14.82;;;2.80;;
33475;SDS011;19814;48.224;11.422;2023-10-09T08:58:49;12.48;;;2.08;;
33475;SDS011;19814;48.224;11.422;2023-10-09T09:01:20;12.45;;;2.67;;
33475;SDS011;19814;48.224;11.422;2023-10-09T09:03:47;7.93;;;2.63;;
33475;SDS011;19814;48.224;11.422;2023-10-09T09:06:15;14.27;;;2.85;;
33475;SDS011;19814;48.224;11.422;2023-10-09T09:08:42;10.75;;;2.45;;
33475;SDS011;19814;48.224;11.422;2023-10-09T09:11:10;12.55;;;2.50;;
33475;SDS011;19814;48.224;11.422;2023-10-09T09:13:46;14.48;;;2.40;;
33475;SDS011;19814;48.224;11.422;2023-10-09T09:16:19;14.85;;;2.35;;
33475;SDS011;19814;48.224;11.422;2023-10-09T09:18:48;15.32;;;3.00;;
33475;SDS011;19814;48.224;11.422;2023-10-09T09:21:17;9.25;;;2.33;;
33475;SDS011;19814;48.224;11.422;2023-10-09T09:24:00;14.52;;;2.17;;
33475;SDS011;19814;48.224;11.422;2023-10-09T09:26:36;15.20;;;3.35;;
33475;SDS011;19814;48.224;11.422;2023-10-09T09:29:05;10.77;;;2.30;;
33475;SDS011;19814;48.224;11.422;2023-10-09T09:31:34;14.40;;;2.28;;
33475;SDS011;19814;48.224;11.422;2023-10-09T09:34:06;12.10;;;2.90;;
33475;SDS011;19814;48.224;11.422;2023-10-09T09:36:43;9.57;;;2.10;;
33475;SDS011;19814;48.224;11.422;2023-10-09T09:39:18;18.20;;;2.38;;
33475;SDS011;19814;48.224;11.422;2023-10-09T09:42:01;16.10;;;2.83;;
33475;SDS011;19814;48.224;11.422;2023-10-09T09:44:32;12.18;;;2.35;;
33475;SDS011;19814;48.224;11.422;2023-10-09T09:47:08;9.00;;;2.10;;
33475;SDS011;19814;48.224;11.422;2023-10-09T09:49:38;9.57;;;2.17;;
33475;SDS011;19814;48.224;11.422;2023-10-09T09:52:08;15.77;;;2.80;;
33475;SDS011;19814;48.224;11.422;2023-10-09T09:54:37;12.10;;;2.30;;
33475;SDS011;19814;48.224;11.422;2023-10-09T09:57:04;11.60;;;2.22;;
33475;SDS011;19814;48.224;11.422;2023-10-09T09:59:36;7.38;;;2.13;;
33475;SDS011;19814;48.224;11.422;2023-10-09T10:02:05;12.88;;;2.80;;
33475;SDS011;19814;48.224;11.422;2023-10-09T10:04:36;10.00;;;3.03;;
33475;SDS011;19814;48.224;11.422;2023-10-09T10:07:04;14.05;;;2.28;;
33475;SDS011;19814;48.224;11.422;2023-10-09T10:09:38;12.95;;;2.10;;
33475;SDS011;19814;48.224;11.422;2023-10-09T10:12:11;14.30;;;2.28;;
33475;SDS011;19814;48.224;11.422;2023-10-09T10:14:51;12.90;;;2.45;;
33475;SDS011;19814;48.224;11.422;2023-10-09T10:17:24;13.25;;;2.47;;
33475;SDS011;19814;48.224;11.422;2023-10-09T10:20:08;11.60;;;2.53;;
33475;SDS011;19814;48.224;11.422;2023-10-09T10:22:42;10.80;;;2.42;;
33475;SDS011;19814;48.224;11.422;2023-10-09T10:31:00;11.13;;;2.45;;
33475;SDS011;19814;48.224;11.422;2023-10-09T10:34:14;8.38;;;2.35;;
33475;SDS011;19814;48.224;11.422;2023-10-09T10:36:19;11.70;;;2.28;;
33475;SDS011;19814;48.224;11.422;2023-10-09T10:39:07;11.48;;;2.70;;
33475;SDS011;19814;48.224;11.422;2023-10-09T10:41:54;12.20;;;2.45;;
33475;SDS011;19814;48.224;11.422;2023-10-09T10:44:27;15.65;;;2.97;;
33475;SDS011;19814;48.224;11.422;2023-10-09T10:47:01;14.50;;;3.08;;
33475;SDS011;19814;48.224;11.422;2023-10-09T10:49:46;11.00;;;3.13;;
33475;SDS011;19814;48.224;11.422;2023-10-09T10:52:22;14.43;;;2.47;;
33475;SDS011;19814;48.224;11.422;2023-10-09T10:55:09;10.70;;;2.20;;
33475;SDS011;19814;48.224;11.422;2023-10-09T10:58:02;14.23;;;2.30;;
33475;SDS011;19814;48.224;11.422;2023-10-09T11:00:39;15.27;;;2.28;;
33475;SDS011;19814;48.224;11.422;2023-10-09T11:03:24;11.98;;;3.00;;
33475;SDS011;19814;48.224;11.422;2023-10-09T11:06:09;13.43;;;2.53;;
33475;SDS011;19814;48.224;11.422;2023-10-09T11:08:46;15.00;;;2.67;;
33475;SDS011;19814;48.224;11.422;2023-10-09T11:11:19;9.63;;;2.35;;
33475;SDS011;19814;48.224;11.422;2023-10-09T11:13:45;13.50;;;2.63;;
33475;SDS011;19814;48.224;11.422;2023-10-09T11:16:30;6.75;;;2.42;;
33475;SDS011;19814;48.224;11.422;2023-10-09T11:19:11;12.93;;;2.00;;
33475;SDS011;19814;48.224;11.422;2023-10-09T11:21:48;10.20;;;2.28;;
33475;SDS011;19814;48.224;11.422;2023-10-09T11:24:23;12.63;;;2.72;;
33475;SDS011;19814;48.224;11.422;2023-10-09T11:26:49;10.63;;;2.45;;
33475;SDS011;19814;48.224;11.422;2023-10-09T11:29:22;7.78;;;2.72;;
33475;SDS011;19814;48.224;11.422;2023-10-09T11:34:30;15.63;;;2.75;;
33475;SDS011;19814;48.224;11.422;2023-10-09T11:37:01;12.93;;;2.38;;
33475;SDS011;19814;48.224;11.422;2023-10-09T11:39:29;8.65;;;2.00;;
33475;SDS011;19814;48.224;11.422;2023-10-09T11:42:01;14.07;;;2.80;;
33475;SDS011;19814;48.224;11.422;2023-10-09T11:44:34;14.13;;;3.00;;
33475;SDS011;19814;48.224;11.422;2023-10-09T11:47:10;13.90;;;2.63;;
33475;SDS011;19814;48.224;11.422;2023-10-09T11:49:52;15.13;;;3.10;;
33475;SDS011;19814;48.224;11.422;2023-10-09T11:52:25;9.30;;;2.38;;
33475;SDS011;19814;48.224;11.422;2023-10-09T11:55:00;13.10;;;2.78;;
33475;SDS011;19814;48.224;11.422;2023-10-09T11:57:39;13.97;;;2.93;;
33475;SDS011;19814;48.224;11.422;2023-10-09T12:00:05;14.15;;;3.15;;
33475;SDS011;19814;48.224;11.422;2023-10-09T12:02:50;11.50;;;2.60;;
33475;SDS011;19814;48.224;11.422;2023-10-09T12:05:17;14.38;;;2.78;;
33475;SDS011;19814;48.224;11.422;2023-10-09T12:07:44;13.63;;;3.10;;
33475;SDS011;19814;48.224;11.422;2023-10-09T12:10:19;16.90;;;2.22;;
33475;SDS011;19814;48.224;11.422;2023-10-09T12:12:51;10.45;;;2.40;;
33475;SDS011;19814;48.224;11.422;2023-10-09T12:15:17;13.57;;;3.05;;
33475;SDS011;19814;48.224;11.422;2023-10-09T12:17:44;15.15;;;3.35;;
33475;SDS011;19814;48.224;11.422;2023-10-09T12:20:12;11.25;;;2.78;;
33475;SDS011;19814;48.224;11.422;2023-10-09T12:22:55;10.32;;;2.60;;
33475;SDS011;19814;48.224;11.422;2023-10-09T12:25:22;13.80;;;2.78;;
33475;SDS011;19814;48.224;11.422;2023-10-09T12:27:48;16.88;;;2.95;;
33475;SDS011;19814;48.224;11.422;2023-10-09T12:30:14;11.98;;;3.15;;
33475;SDS011;19814;48.224;11.422;2023-10-09T12:32:39;12.43;;;3.13;;
33475;SDS011;19814;48.224;11.422;2023-10-09T12:35:05;17.15;;;3.45;;
33475;SDS011;19814;48.224;11.422;2023-10-09T12:37:42;17.08;;;3.75;;
33475;SDS011;19814;48.224;11.422;2023-10-09T12:40:08;12.32;;;2.65;;
33475;SDS011;19814;48.224;11.422;2023-10-09T12:42:35;16.52;;;2.67;;
33475;SDS011;19814;48.224;11.422;2023-10-09T12:45:01;17.20;;;3.35;;
33475;SDS011;19814;48.224;11.422;2023-10-09T12:47:33;15.25;;;2.60;;
33475;SDS011;19814;48.224;11.422;2023-10-09T12:49:59;11.70;;;2.95;;
33475;SDS011;19814;48.224;11.422;2023-10-09T12:52:24;16.92;;;2.92;;
33475;SDS011;19814;48.224;11.422;2023-10-09T12:54:54;15.07;;;3.05;;
33475;SDS011;19814;48.224;11.422;2023-10-09T12:57:20;12.77;;;3.28;;
33475;SDS011;19814;48.224;11.422;2023-10-09T12:59:46;20.30;;;3.00;;
33475;SDS011;19814;48.224;11.422;2023-10-09T13:02:14;11.00;;;2.83;;
33475;SDS011;19814;48.224;11.422;2023-10-09T13:04:55;9.85;;;2.47;;
33475;SDS011;19814;48.224;11.422;2023-10-09T13:07:22;21.88;;;2.80;;
33475;SDS011;19814;48.224;11.422;2023-10-09T13:09:48;19.33;;;2.85;;
33475;SDS011;19814;48.224;11.422;2023-10-09T13:12:33;11.73;;;2.22;;
33475;SDS011;19814;48.224;11.422;2023-10-09T13:15:03;12.50;;;2.28;;
33475;SDS011;19814;48.224;11.422;2023-10-09T13:17:33;13.27;;;2.75;;
33475;SDS011;19814;48.224;11.422;2023-10-09T13:19:59;9.20;;;2.42;;
33475;SDS011;19814;48.224;11.422;2023-10-09T13:22:24;15.05;;;2.42;;
33475;SDS011;19814;48.224;11.422;2023-10-09T13:24:50;11.45;;;2.42;;
33475;SDS011;19814;48.224;11.422;2023-10-09T13:27:17;13.57;;;2.85;;
33475;SDS011;19814;48.224;11.422;2023-10-09T13:29:46;11.38;;;2.85;;
33475;SDS011;19814;48.224;11.422;2023-10-09T13:32:12;11.90;;;2.45;;
33475;SDS011;19814;48.224;11.422;2023-10-09T13:34:40;18.48;;;3.45;;
33475;SDS011;19814;48.224;11.422;2023-10-09T13:37:12;7.82;;;2.30;;
33475;SDS011;19814;48.224;11.422;2023-10-09T13:39:38;10.20;;;2.22;;
33475;SDS011;19814;48.224;11.422;2023-10-09T13:42:05;11.02;;;2.70;;
33475;SDS011;19814;48.224;11.422;2023-10-09T13:44:32;14.65;;;2.80;;
33475;SDS011;19814;48.224;11.422;2023-10-09T13:47:00;13.95;;;2.92;;
33475;SDS011;19814;48.224;11.422;2023-10-09T13:49:27;14.65;;;2.60;;
33475;SDS011;19814;48.224;11.422;2023-10-09T13:51:56;12.13;;;3.42;;
33475;SDS011;19814;48.224;11.422;2023-10-09T13:54:28;13.18;;;2.90;;
33475;SDS011;19814;48.224;11.422;2023-10-09T13:56:57;14.43;;;2.95;;
33475;SDS011;19814;48.224;11.422;2023-10-09T13:59:29;15.38;;;3.17;;
33475;SDS011;19814;48.224;11.422;2023-10-09T14:01:55;18.58;;;2.95;;
33475;SDS011;19814;48.224;11.422;2023-10-09T14:04:25;10.50;;;2.92;;
33475;SDS011;19814;48.224;11.422;2023-10-09T14:06:53;9.15;;;2.60;;
33475;SDS011;19814;48.224;11.422;2023-10-09T14:09:22;10.10;;;2.75;;
33475;SDS011;19814;48.224;11.422;2023-10-09T14:12:15;11.02;;;2.88;;
33475;SDS011;19814;48.224;11.422;2023-10-09T14:14:44;12.88;;;2.47;;
33475;SDS011;19814;48.224;11.422;2023-10-09T14:17:17;9.63;;;2.83;;
33475;SDS011;19814;48.224;11.422;2023-10-09T14:19:53;11.25;;;2.92;;
33475;SDS011;19814;48.224;11.422;2023-10-09T14:22:22;8.77;;;2.63;;
33475;SDS011;19814;48.224;11.422;2023-10-09T14:24:49;16.92;;;3.05;;
33475;SDS011;19814;48.224;11.422;2023-10-09T14:27:22;10.93;;;2.47;;
33475;SDS011;19814;48.224;11.422;2023-10-09T14:29:54;13.10;;;2.78;;
33475;SDS011;19814;48.224;11.422;2023-10-09T14:32:37;14.75;;;3.08;;
33475;SDS011;19814;48.224;11.422;2023-10-09T14:35:09;12.88;;;2.17;;
33475;SDS011;19814;48.224;11.422;2023-10-09T14:37:40;16.08;;;3.00;;
33475;SDS011;19814;48.224;11.422;2023-10-09T14:40:06;15.32;;;3.42;;
33475;SDS011;19814;48.224;11.422;2023-10-09T14:42:38;10.00;;;2.58;;
33475;SDS011;19814;48.224;11.422;2023-10-09T14:45:09;12.85;;;3.20;;
33475;SDS011;19814;48.224;11.422;2023-10-09T14:47:40;13.05;;;2.45;;
33475;SDS011;19814;48.224;11.422;2023-10-09T14:50:06;14.23;;;2.78;;
33475;SDS011;19814;48.224;11.422;2023-10-09T14:52:38;8.95;;;2.40;;
33475;SDS011;19814;48.224;11.422;2023-10-09T14:55:04;13.50;;;2.85;;
33475;SDS011;19814;48.224;11.422;2023-10-09T14:57:31;12.60;;;3.13;;
33475;SDS011;19814;48.224;11.422;2023-10-09T14:59:58;17.30;;;3.05;;
33475;SDS011;19814;48.224;11.422;2023-10-09T15:02:24;11.02;;;2.58;;
33475;SDS011;19814;48.224;11.422;2023-10-09T15:04:50;12.35;;;2.92;;
33475;SDS011;19814;48.224;11.422;2023-10-09T15:07:17;11.57;;;2.55;;
33475;SDS011;19814;48.224;11.422;2023-10-09T15:09:44;15.13;;;2.85;;
33475;SDS011;19814;48.224;11.422;2023-10-09T15:12:10;10.95;;;2.30;;
33475;SDS011;19814;48.224;11.422;2023-10-09T15:14:36;12.15;;;2.90;;
33475;SDS011;19814;48.224;11.422;2023-10-09T15:17:04;12.68;;;2.83;;
33475;SDS011;19814;48.224;11.422;2023-10-09T15:19:31;8.15;;;2.80;;
33475;SDS011;19814;48.224;11.422;2023-10-09T15:21:57;14.95;;;3.15;;
33475;SDS011;19814;48.224;11.422;2023-10-09T15:24:24;12.00;;;3.45;;
33475;SDS011;19814;48.224;11.422;2023-10-09T15:26:52;14.63;;;2.78;;
33475;SDS011;19814;48.224;11.422;2023-10-09T15:29:19;12.48;;;2.53;;